createdAt,value
2018-05-15T17:31:01.420Z,100425.04
2018-05-15T17:33:33.001Z,100434.97
2018-05-15T17:36:03.725Z,100424.73
2018-05-15T17:38:31.562Z,100407.42
2018-05-15T17:40:59.935Z,100398.92
2018-05-15T17:43:28.115Z,100377.81
2018-05-15T17:45:56.509Z,100373.31
2018-05-15T17:48:26.418Z,100367.64
2018-05-15T17:50:55.365Z,100366.14
2018-05-15T17:53:27.993Z,100370.30
2018-05-15T17:55:58.428Z,100373.45
2018-05-15T17:58:26.959Z,100376.52
2018-05-15T18:00:55.251Z,100378.59
2018-05-15T18:03:23.440Z,100374.02
2018-05-15T18:05:52.753Z,100361.41
2018-05-15T18:08:21.156Z,100383.94
2018-05-15T18:10:49.740Z,100376.73
2018-05-15T18:13:18.039Z,100373.17
2018-05-15T18:15:46.584Z,100372.80
2018-05-15T18:18:15.571Z,100378.02
2018-05-15T18:20:43.899Z,100381.13
2018-05-15T18:23:12.907Z,100381.31
2018-05-15T18:25:41.117Z,100386.93
2018-05-15T18:28:09.449Z,100387.86
2018-05-15T18:30:38.032Z,100391.95
2018-05-15T18:33:08.546Z,100395.41
2018-05-15T18:35:36.869Z,100389.73
2018-05-15T18:38:05.433Z,100396.89
2018-05-15T18:40:33.596Z,100418.06
2018-05-15T18:43:01.693Z,100438.54
2018-05-15T18:45:29.859Z,100447.45
2018-05-15T18:48:02.636Z,100428.92
2018-05-15T18:50:30.374Z,100436.67
2018-05-15T18:52:59.055Z,100434.66
2018-05-15T18:55:27.901Z,100436.92
2018-05-15T18:57:55.796Z,100444.25
2018-05-15T19:00:27.254Z,100441.80
2018-05-15T19:02:58.845Z,100441.30
2018-05-15T19:05:26.891Z,100454.58
2018-05-15T19:07:56.820Z,100465.04
2018-05-15T19:10:25.939Z,100467.44
2018-05-15T19:12:54.217Z,100469.38
2018-05-15T19:15:21.944Z,100474.44
2018-05-15T19:17:52.719Z,100481.31
2018-05-15T19:20:22.314Z,100489.16
2018-05-15T19:22:50.695Z,100496.31
2018-05-15T19:25:21.933Z,100495.42
2018-05-15T19:27:53.806Z,100504.98
2018-05-15T19:30:22.585Z,100499.62
2018-05-15T19:32:56.701Z,100496.39
2018-05-15T19:35:45.453Z,100498.80
2018-05-15T19:38:13.814Z,100506.56
2018-05-15T19:40:42.975Z,100506.16
2018-05-15T19:43:10.555Z,100506.03
2018-05-15T19:45:38.245Z,100505.09
2018-05-15T19:48:06.109Z,100506.13
2018-05-15T19:50:33.752Z,100514.98
2018-05-15T19:53:01.409Z,100511.33
2018-05-15T19:55:29.050Z,100518.41
2018-05-15T19:57:56.601Z,100518.19
2018-05-15T20:00:24.100Z,100516.85
2018-05-15T20:02:51.725Z,100521.97
2018-05-15T20:05:19.272Z,100523.52
2018-05-15T20:07:47.665Z,100529.09
2018-05-15T20:10:16.879Z,100525.67
2018-05-15T20:12:44.535Z,100528.45
2018-05-15T20:15:12.089Z,100523.36
2018-05-15T20:17:39.627Z,100523.34
2018-05-15T20:20:07.211Z,100523.41
2018-05-15T20:22:34.755Z,100528.67
2018-05-15T20:25:02.396Z,100523.42
2018-05-15T20:27:29.975Z,100523.14
2018-05-15T20:29:57.531Z,100508.63
2018-05-15T20:32:25.136Z,100512.83
2018-05-15T20:34:52.736Z,100507.83
2018-05-15T20:37:20.250Z,100511.92
2018-05-15T20:39:47.787Z,100519.80
2018-05-15T20:42:15.368Z,100513.31
2018-05-15T20:44:42.886Z,100513.19
2018-05-15T20:47:10.653Z,100513.48
2018-05-15T20:49:38.202Z,100509.54
2018-05-15T20:52:05.844Z,100510.45
2018-05-15T20:54:33.372Z,100510.83
2018-05-15T20:57:00.971Z,100504.47
2018-05-15T20:59:28.563Z,100508.41
2018-05-15T21:01:56.262Z,100501.18
2018-05-15T21:04:23.778Z,100500.30
2018-05-15T21:06:51.410Z,100503.67
2018-05-15T21:09:19.068Z,100502.88
2018-05-15T21:11:46.643Z,100500.69
2018-05-15T21:14:14.300Z,100508.85
2018-05-15T21:16:41.946Z,100502.50
2018-05-15T21:19:09.510Z,100503.17
2018-05-15T21:21:37.053Z,100504.17
2018-05-15T21:24:04.612Z,100499.92
2018-05-15T21:26:32.200Z,100489.11
2018-05-15T21:28:59.799Z,100476.06
2018-05-15T21:31:27.425Z,100474.60
2018-05-15T21:33:54.964Z,100466.74
2018-05-15T21:36:22.555Z,100452.27
2018-05-15T21:38:50.131Z,100443.54
2018-05-15T21:41:17.831Z,100429.03
2018-05-15T21:43:45.418Z,100425.47
2018-05-15T21:46:13.202Z,100428.62
2018-05-15T21:48:40.816Z,100427.23
2018-05-15T21:51:08.339Z,100429.68
2018-05-15T21:53:35.958Z,100428.73
2018-05-15T21:56:03.528Z,100424.84
2018-05-15T21:58:31.026Z,100423.70
2018-05-15T22:00:58.722Z,100418.11
2018-05-15T22:03:26.332Z,100421.86
2018-05-15T22:05:53.936Z,100421.37
2018-05-15T22:08:21.444Z,100416.48
2018-05-15T22:10:49.095Z,100415.05
2018-05-15T22:13:28.516Z,100415.77
2018-05-15T22:16:07.887Z,100424.54
2018-05-15T22:18:47.319Z,100427.13
2018-05-15T22:21:26.723Z,100432.91
2018-05-15T22:23:54.573Z,100423.56
2018-05-15T22:26:22.246Z,100424.84
2018-05-15T22:28:49.794Z,100427.04
2018-05-15T22:31:17.408Z,100421.56
2018-05-15T22:33:44.932Z,100429.77
2018-05-15T22:36:12.569Z,100429.28
2018-05-15T22:38:40.187Z,100422.55
2018-05-15T22:41:07.804Z,100428.10
2018-05-15T22:43:35.330Z,100423.94
2018-05-15T22:46:02.900Z,100422.88
2018-05-15T22:48:30.399Z,100419.47
2018-05-15T22:50:57.928Z,100418.56
2018-05-15T22:53:25.477Z,100416.33
2018-05-15T22:55:53.051Z,100421.14
2018-05-15T22:58:20.595Z,100418.95
2018-05-15T23:00:48.102Z,100415.65
2018-05-15T23:03:15.808Z,100420.25
2018-05-15T23:05:43.360Z,100418.33
2018-05-15T23:08:10.871Z,100423.44
2018-05-15T23:10:38.462Z,100421.32
2018-05-15T23:13:05.975Z,100422.61
2018-05-15T23:15:33.529Z,100428.09
2018-05-15T23:18:01.074Z,100421.52
2018-05-15T23:20:28.637Z,100419.36
2018-05-15T23:22:56.134Z,100420.98
2018-05-15T23:25:23.659Z,100413.72
2018-05-15T23:27:51.201Z,100420.12
2018-05-15T23:30:18.741Z,100421.37
2018-05-15T23:32:46.318Z,100416.67
2018-05-15T23:35:13.841Z,100412.44
2018-05-15T23:37:41.350Z,100408.99
2018-05-15T23:40:08.880Z,100403.96
2018-05-15T23:42:36.432Z,100404.52
2018-05-15T23:45:03.945Z,100407.39
2018-05-15T23:47:31.448Z,100403.23
2018-05-15T23:49:59.011Z,100403.37
2018-05-15T23:52:26.544Z,100406.03
2018-05-15T23:54:54.036Z,100400.47
2018-05-15T23:57:21.585Z,100398.24
2018-05-15T23:59:49.115Z,100399.08
